createdAt,value
2017-04-16T00:00:52.834Z,74.74
2017-04-16T00:01:52.814Z,74.74
2017-04-16T00:02:52.795Z,74.74
2017-04-16T00:03:52.772Z,74.74
2017-04-16T00:04:52.752Z,74.83
2017-04-16T00:05:52.734Z,74.64
2017-04-16T00:06:52.715Z,74.45
2017-04-16T00:07:52.696Z,74.92
2017-04-16T00:08:52.678Z,74.55
2017-04-16T00:09:52.652Z,74.92
2017-04-16T00:10:52.633Z,74.74
2017-04-16T00:11:52.614Z,74.92
2017-04-16T00:12:52.595Z,74.74
2017-04-16T00:13:52.572Z,74.74
2017-04-16T00:14:52.555Z,74.64
2017-04-16T00:15:52.534Z,74.64
2017-04-16T00:16:52.213Z,74.74
2017-04-16T00:17:52.494Z,74.83
2017-04-16T00:18:52.475Z,74.92
2017-04-16T00:19:52.463Z,74.83
2017-04-16T00:20:52.434Z,74.64
2017-04-16T00:21:52.411Z,74.74
2017-04-16T00:22:52.395Z,74.64
2017-04-16T00:23:52.375Z,74.83
2017-04-16T00:24:52.355Z,75.02
2017-04-16T00:25:52.338Z,75.02
2017-04-16T00:26:52.312Z,74.92
2017-04-16T00:27:52.291Z,75.02
2017-04-16T00:28:52.270Z,74.92
2017-04-16T00:29:52.252Z,75.02
2017-04-16T00:30:52.230Z,74.64
2017-04-16T00:31:52.209Z,74.45
2017-04-16T00:32:52.232Z,74.83
2017-04-16T00:33:52.170Z,74.74
2017-04-16T00:34:52.151Z,74.64
2017-04-16T00:35:52.130Z,74.83
2017-04-16T00:36:52.108Z,74.64
2017-04-16T00:37:52.091Z,74.74
2017-04-16T00:38:51.768Z,75.02
2017-04-16T00:39:52.047Z,74.45
2017-04-16T00:40:52.031Z,74.45
2017-04-16T00:41:52.007Z,74.74
2017-04-16T00:42:51.990Z,74.74
2017-04-16T00:43:51.967Z,74.74
2017-04-16T00:44:51.950Z,73.98
2017-04-16T00:45:51.930Z,74.17
2017-04-16T00:46:51.907Z,74.36
2017-04-16T00:47:51.889Z,74.07
2017-04-16T00:48:51.871Z,74.07
2017-04-16T00:49:51.844Z,74.36
2017-04-16T00:50:51.831Z,74.26
2017-04-16T00:51:51.808Z,74.26
2017-04-16T00:52:51.789Z,74.26
2017-04-16T00:53:51.794Z,74.26
2017-04-16T00:54:51.745Z,74.17
2017-04-16T00:55:51.729Z,74.45
2017-04-16T00:56:51.704Z,74.26
2017-04-16T00:57:51.690Z,74.26
2017-04-16T00:58:51.666Z,74.36
2017-04-16T00:59:51.647Z,74.26
2017-04-16T01:00:51.627Z,74.17
2017-04-16T01:01:51.608Z,74.36
2017-04-16T01:02:51.589Z,74.26
2017-04-16T01:03:51.569Z,74.36
2017-04-16T01:04:51.546Z,74.36
2017-04-16T01:05:51.531Z,74.45
2017-04-16T01:06:51.505Z,74.36
2017-04-16T01:07:51.487Z,74.45
2017-04-16T01:08:51.468Z,74.17
2017-04-16T01:09:51.444Z,74.26
2017-04-16T01:10:51.425Z,74.36
2017-04-16T01:11:51.406Z,74.36
2017-04-16T01:12:51.384Z,74.36
2017-04-16T01:13:51.368Z,74.36
2017-04-16T01:14:51.346Z,74.36
2017-04-16T01:15:51.323Z,74.17
2017-04-16T01:16:51.304Z,74.17
2017-04-16T01:17:51.287Z,74.26
2017-04-16T01:18:51.169Z,74.45
2017-04-16T01:19:51.246Z,74.26
2017-04-16T01:20:51.225Z,74.17
2017-04-16T01:21:51.205Z,74.36
2017-04-16T01:22:51.184Z,74.26
2017-04-16T01:23:51.161Z,74.26
2017-04-16T01:24:51.141Z,74.17
2017-04-16T01:25:51.121Z,73.88
2017-04-16T01:26:51.100Z,73.88
2017-04-16T01:27:51.081Z,74.17
2017-04-16T01:28:51.064Z,73.88
2017-04-16T01:29:51.041Z,73.88
2017-04-16T01:30:51.022Z,74.17
2017-04-16T01:31:51.001Z,74.17
2017-04-16T01:32:50.982Z,74.36
2017-04-16T01:33:50.960Z,74.36
2017-04-16T01:34:50.941Z,73.98
2017-04-16T01:35:50.919Z,73.88
2017-04-16T01:36:50.900Z,74.26
2017-04-16T01:37:50.875Z,74.17
2017-04-16T01:38:50.856Z,74.07
2017-04-16T01:39:50.840Z,74.07
2017-04-16T01:40:50.816Z,74.17
2017-04-16T01:41:50.796Z,74.07
2017-04-16T01:42:50.771Z,73.79
2017-04-16T01:43:50.758Z,73.85
2017-04-16T01:44:50.734Z,73.98
2017-04-16T01:45:50.710Z,73.98
2017-04-16T01:46:50.690Z,73.98
2017-04-16T01:47:50.671Z,73.88
2017-04-16T01:48:50.649Z,73.98
2017-04-16T01:49:50.629Z,73.79
2017-04-16T01:50:50.604Z,73.98
2017-04-16T01:51:50.587Z,73.98
2017-04-16T01:52:50.565Z,73.88
2017-04-16T01:53:50.547Z,73.51
2017-04-16T01:54:50.524Z,73.69
2017-04-16T01:55:50.505Z,73.51
2017-04-16T01:56:50.183Z,73.41
2017-04-16T01:57:50.462Z,73.41
2017-04-16T01:58:50.443Z,73.6
2017-04-16T01:59:50.421Z,73.41
2017-04-16T02:00:50.401Z,73.41
2017-04-16T02:01:50.383Z,73.6
2017-04-16T02:02:50.361Z,73.6
2017-04-16T02:03:50.342Z,73.51
2017-04-16T02:04:50.321Z,73.6
2017-04-16T02:05:50.301Z,73.69
2017-04-16T02:06:50.277Z,73.6
2017-04-16T02:07:50.268Z,73.6
2017-04-16T02:08:50.243Z,73.51
2017-04-16T02:09:50.218Z,73.41
2017-04-16T02:10:50.195Z,73.6
2017-04-16T02:11:50.180Z,73.22
2017-04-16T02:12:50.199Z,73.22
2017-04-16T02:13:50.141Z,73.41
2017-04-16T02:14:50.117Z,73.51
2017-04-16T02:15:50.095Z,73.6
2017-04-16T02:16:50.077Z,73.22
2017-04-16T02:17:50.056Z,73.41
2017-04-16T02:18:50.040Z,73.22
2017-04-16T02:19:50.015Z,73.22
2017-04-16T02:20:49.993Z,73.6
2017-04-16T02:21:49.692Z,73.69
2017-04-16T02:22:49.955Z,73.51
2017-04-16T02:23:49.935Z,73.51
2017-04-16T02:24:49.917Z,73.41
2017-04-16T02:25:49.902Z,73.51
2017-04-16T02:26:49.575Z,73.51
2017-04-16T02:27:49.863Z,73.41
2017-04-16T02:28:49.536Z,73.51
2017-04-16T02:29:49.819Z,73.51
2017-04-16T02:30:49.796Z,73.32
2017-04-16T02:31:49.777Z,73.19
2017-04-16T02:32:49.755Z,73.47
2017-04-16T02:33:49.739Z,73.38
2017-04-16T02:34:49.723Z,73.57
2017-04-16T02:35:49.696Z,74.04
2017-04-16T02:36:49.677Z,74.04
2017-04-16T02:37:49.657Z,73.75
2017-04-16T02:38:49.637Z,73.85
2017-04-16T02:39:49.614Z,73.85
2017-04-16T02:40:49.596Z,73.47
2017-04-16T02:41:49.573Z,73.57
2017-04-16T02:42:49.554Z,73.38
2017-04-16T02:43:49.531Z,73.57
2017-04-16T02:44:49.510Z,73.28
2017-04-16T02:45:49.488Z,73.57
2017-04-16T02:46:49.468Z,73.19
2017-04-16T02:47:49.451Z,73.57
2017-04-16T02:48:49.433Z,73.57
2017-04-16T02:49:49.407Z,73.47
2017-04-16T02:50:49.388Z,73.57
2017-04-16T02:51:49.365Z,73.47
2017-04-16T02:52:49.343Z,73.47
2017-04-16T02:53:49.323Z,73.19
2017-04-16T02:54:49.305Z,73.47
2017-04-16T02:55:49.279Z,73.47
2017-04-16T02:56:49.258Z,73.57
2017-04-16T02:57:49.238Z,73.57
2017-04-16T02:58:49.221Z,73.47
2017-04-16T02:59:49.196Z,73.38
2017-04-16T03:00:49.177Z,73.28
2017-04-16T03:01:48.853Z,73.57
2017-04-16T03:02:49.137Z,73.47
2017-04-16T03:03:49.114Z,73.85
2017-04-16T03:04:49.090Z,73.57
2017-04-16T03:05:49.070Z,73.57
2017-04-16T03:06:49.095Z,73.57
2017-04-16T03:07:49.028Z,73.47
2017-04-16T03:08:49.009Z,73.66
2017-04-16T03:09:48.989Z,73.28
2017-04-16T03:10:48.964Z,73.57
2017-04-16T03:11:48.945Z,73.57
2017-04-16T03:12:48.924Z,73.57
2017-04-16T03:13:48.902Z,73.19
2017-04-16T03:14:48.881Z,73.47
2017-04-16T03:15:48.858Z,73.57
2017-04-16T03:16:48.839Z,73.47
2017-04-16T03:17:48.829Z,73.38
2017-04-16T03:18:48.801Z,73.75
2017-04-16T03:19:48.775Z,73.75
2017-04-16T03:20:48.752Z,73.57
2017-04-16T03:21:48.731Z,73.66
2017-04-16T03:22:48.712Z,73.57
2017-04-16T03:23:48.687Z,73.28
2017-04-16T03:24:48.665Z,73.75
2017-04-16T03:25:48.645Z,73.38
2017-04-16T03:26:48.624Z,73.47
2017-04-16T03:27:48.603Z,73.38
2017-04-16T03:28:48.584Z,73.38
2017-04-16T03:29:48.559Z,73.28
2017-04-16T03:30:48.537Z,73.57
2017-04-16T03:31:48.514Z,73.47
2017-04-16T03:32:48.497Z,73.19
2017-04-16T03:33:48.474Z,73.38
2017-04-16T03:34:48.457Z,73.1
2017-04-16T03:35:48.432Z,73.1
2017-04-16T03:36:48.410Z,73.28
2017-04-16T03:37:48.394Z,73.1
2017-04-16T03:38:48.367Z,73.19
2017-04-16T03:39:48.348Z,73.28
2017-04-16T03:40:48.325Z,73.28
2017-04-16T03:41:48.305Z,73.28
2017-04-16T03:42:48.286Z,73
2017-04-16T03:43:48.260Z,73.28
2017-04-16T03:44:48.243Z,73.28
2017-04-16T03:45:48.221Z,73
2017-04-16T03:46:48.199Z,73.28
2017-04-16T03:47:48.179Z,73.28
2017-04-16T03:48:48.165Z,73.1
2017-04-16T03:49:48.132Z,73.19
2017-04-16T03:50:48.119Z,73.19
2017-04-16T03:51:48.092Z,73
2017-04-16T03:52:48.074Z,73.19
2017-04-16T03:53:48.051Z,73.28
2017-04-16T03:54:48.031Z,73.28
2017-04-16T03:55:48.007Z,73.38
2017-04-16T03:56:47.986Z,73
2017-04-16T03:57:47.969Z,73.1
2017-04-16T03:58:47.949Z,73.19
2017-04-16T03:59:47.927Z,73.19
2017-04-16T04:00:47.904Z,73.19
2017-04-16T04:01:47.884Z,73
2017-04-16T04:02:47.864Z,72.81
2017-04-16T04:03:47.846Z,72.91
2017-04-16T04:04:47.824Z,73
2017-04-16T04:05:47.802Z,72.91
2017-04-16T04:06:47.782Z,73.1
2017-04-16T04:07:47.759Z,73.1
2017-04-16T04:08:47.742Z,72.91
2017-04-16T04:09:47.724Z,73.1
2017-04-16T04:10:47.696Z,73.19
2017-04-16T04:11:47.676Z,72.81
2017-04-16T04:12:47.659Z,73
2017-04-16T04:13:47.640Z,73
2017-04-16T04:14:47.616Z,73.1
2017-04-16T04:15:47.595Z,72.91
2017-04-16T04:16:47.574Z,73
2017-04-16T04:17:47.554Z,73
2017-04-16T04:18:47.536Z,73
2017-04-16T04:19:47.512Z,73.28
2017-04-16T04:20:47.489Z,73
2017-04-16T04:21:47.469Z,72.91
2017-04-16T04:22:47.450Z,72.81
2017-04-16T04:23:47.432Z,72.91
2017-04-16T04:24:47.410Z,72.81
2017-04-16T04:25:47.388Z,72.81
2017-04-16T04:26:47.369Z,72.81
2017-04-16T04:27:47.353Z,72.91
2017-04-16T04:28:47.329Z,73.1
2017-04-16T04:29:47.307Z,73
2017-04-16T04:30:47.291Z,73.19
2017-04-16T04:31:47.267Z,72.91
2017-04-16T04:32:47.245Z,73
2017-04-16T04:33:47.246Z,72.81
2017-04-16T04:34:47.205Z,73
2017-04-16T04:35:47.188Z,73
2017-04-16T04:36:47.163Z,72.81
2017-04-16T04:37:47.144Z,72.91
2017-04-16T04:38:47.125Z,72.81
2017-04-16T04:39:47.101Z,73
2017-04-16T04:40:47.083Z,72.91
2017-04-16T04:41:47.070Z,73
2017-04-16T04:42:47.044Z,73
2017-04-16T04:43:47.030Z,73.1
2017-04-16T04:44:47.000Z,73
2017-04-16T04:45:46.979Z,72.81
2017-04-16T04:46:46.959Z,73
2017-04-16T04:47:46.937Z,73.1
2017-04-16T04:48:46.920Z,73.28
2017-04-16T04:49:46.898Z,73.1
2017-04-16T04:50:46.873Z,73
2017-04-16T04:51:46.853Z,73.1
2017-04-16T04:52:46.833Z,73.19
2017-04-16T04:53:46.813Z,73.19
2017-04-16T04:54:46.792Z,73.38
2017-04-16T04:55:46.767Z,73.38
2017-04-16T04:56:46.748Z,73.1
2017-04-16T04:57:46.728Z,73
2017-04-16T04:58:46.706Z,73.1
2017-04-16T04:59:46.688Z,72.96
2017-04-16T05:00:46.661Z,73
2017-04-16T05:01:46.642Z,73.28
2017-04-16T05:02:46.620Z,73.38
2017-04-16T05:03:46.598Z,73.1
2017-04-16T05:04:46.580Z,73
2017-04-16T05:05:46.558Z,72.77
2017-04-16T05:06:46.536Z,72.68
2017-04-16T05:07:46.516Z,73
2017-04-16T05:08:46.616Z,72.96
2017-04-16T05:09:46.467Z,73
2017-04-16T05:10:46.444Z,72.81
2017-04-16T05:11:46.425Z,72.91
2017-04-16T05:12:46.403Z,73.1
2017-04-16T05:13:46.383Z,72.96
2017-04-16T05:14:46.358Z,73
2017-04-16T05:15:46.339Z,73
2017-04-16T05:16:46.319Z,72.81
2017-04-16T05:17:46.297Z,73
2017-04-16T05:18:46.273Z,72.87
2017-04-16T05:19:46.248Z,73
2017-04-16T05:20:46.229Z,72.96
2017-04-16T05:21:46.206Z,73.06
2017-04-16T05:22:46.228Z,72.96
2017-04-16T05:23:46.382Z,72.77
2017-04-16T05:24:46.138Z,72.77
2017-04-16T05:25:59.603Z,73.06
2017-04-16T05:26:46.098Z,73.25
2017-04-16T05:27:46.284Z,72.77
2017-04-16T05:28:46.259Z,72.68
2017-04-16T05:29:46.033Z,72.77
2017-04-16T05:30:46.012Z,72.96
2017-04-16T05:31:45.684Z,72.77
2017-04-16T05:32:45.963Z,72.44
2017-04-16T05:33:45.947Z,72.62
2017-04-16T05:34:45.922Z,72.62
2017-04-16T05:35:45.899Z,72.72
2017-04-16T05:36:45.877Z,72.91
2017-04-16T05:37:45.555Z,72.81
2017-04-16T05:38:45.837Z,72.72
2017-04-16T05:39:45.814Z,72.58
2017-04-16T05:40:45.794Z,72.58
2017-04-16T05:41:45.770Z,72.53
2017-04-16T05:42:45.749Z,72.53
2017-04-16T05:43:45.727Z,72.62
2017-04-16T05:44:45.706Z,72.34
2017-04-16T05:45:45.683Z,72.62
2017-04-16T05:46:45.664Z,72.34
2017-04-16T05:47:45.339Z,72.21
2017-04-16T05:48:45.620Z,72.53
2017-04-16T05:49:45.596Z,72.53
2017-04-16T05:50:45.575Z,72.62
2017-04-16T05:51:45.555Z,72.81
2017-04-16T05:52:45.532Z,72.62
2017-04-16T05:53:45.509Z,72.62
2017-04-16T05:54:45.489Z,72.81
2017-04-16T05:55:45.466Z,72.72
2017-04-16T05:56:45.444Z,72.72
2017-04-16T05:57:45.438Z,72.25
2017-04-16T05:58:45.403Z,72.34
2017-04-16T05:59:45.379Z,72.25
2017-04-16T06:00:45.561Z,72.34
2017-04-16T06:01:45.553Z,72.34
2017-04-16T06:02:45.320Z,72.34
2017-04-16T06:03:45.296Z,72.15
2017-04-16T06:04:45.276Z,72.34
2017-04-16T06:05:45.252Z,72.25
2017-04-16T06:06:45.231Z,72.34
2017-04-16T06:07:45.206Z,72.25
2017-04-16T06:08:45.188Z,72.15
2017-04-16T06:09:45.164Z,72.72
2017-04-16T06:10:45.151Z,72.34
2017-04-16T06:11:45.120Z,72.25
2017-04-16T06:12:45.099Z,72.25
2017-04-16T06:13:45.078Z,72.34
2017-04-16T06:14:45.057Z,72.25
2017-04-16T06:15:45.036Z,72.34
2017-04-16T06:16:45.016Z,72.34
2017-04-16T06:17:44.995Z,72.15
2017-04-16T06:18:44.969Z,72.25
2017-04-16T06:19:44.945Z,72.34
2017-04-16T06:20:44.926Z,72.34
2017-04-16T06:21:44.909Z,72.15
2017-04-16T06:22:44.884Z,72.34
2017-04-16T06:23:44.864Z,72.25
2017-04-16T06:24:44.842Z,72.25
2017-04-16T06:25:44.819Z,72.15
2017-04-16T06:26:44.797Z,72.15
2017-04-16T06:27:44.775Z,72.06
2017-04-16T06:28:44.756Z,72.06
2017-04-16T06:29:44.731Z,72.06
2017-04-16T06:30:44.711Z,71.87
2017-04-16T06:31:44.386Z,71.96
2017-04-16T06:32:44.880Z,71.96
2017-04-16T06:33:44.848Z,72.06
2017-04-16T06:34:44.623Z,71.77
2017-04-16T06:35:44.601Z,71.96
2017-04-16T06:36:44.576Z,72.06
2017-04-16T06:37:44.557Z,72.06
2017-04-16T06:38:44.537Z,71.87
2017-04-16T06:39:44.512Z,72.25
2017-04-16T06:40:44.559Z,71.58
2017-04-16T06:41:44.469Z,71.68
2017-04-16T06:42:44.450Z,71.3
2017-04-16T06:43:44.424Z,71.3
2017-04-16T06:44:44.406Z,71.49
2017-04-16T06:45:44.384Z,71.49
2017-04-16T06:46:44.361Z,71.4
2017-04-16T06:47:44.345Z,71.21
2017-04-16T06:48:44.319Z,71.3
2017-04-16T06:49:44.296Z,71.4
2017-04-16T06:50:44.274Z,71.58
2017-04-16T06:51:44.252Z,71.58
2017-04-16T06:52:44.236Z,71.3
2017-04-16T06:53:44.210Z,71.3
2017-04-16T06:54:44.190Z,71.3
2017-04-16T06:55:44.169Z,71.3
2017-04-16T06:56:44.148Z,71.3
2017-04-16T06:57:44.128Z,71.02
2017-04-16T06:58:44.109Z,71.3
2017-04-16T06:59:44.087Z,70.83
2017-04-16T07:00:44.064Z,71.49
2017-04-16T07:01:44.044Z,70.83
2017-04-16T07:02:44.021Z,70.83
2017-04-16T07:03:44.003Z,70.92
2017-04-16T07:04:43.983Z,71.02
2017-04-16T07:05:43.961Z,70.92
2017-04-16T07:06:44.148Z,70.92
2017-04-16T07:07:43.919Z,70.92
2017-04-16T07:08:43.895Z,70.64
2017-04-16T07:09:43.876Z,70.64
2017-04-16T07:10:43.857Z,70.45
2017-04-16T07:11:44.043Z,70.64
2017-04-16T07:12:43.817Z,70.54
2017-04-16T07:13:43.489Z,70.26
2017-04-16T07:14:43.773Z,70.64
2017-04-16T07:15:43.754Z,70.26
2017-04-16T07:16:43.730Z,70.49
2017-04-16T07:17:43.712Z,70.11
2017-04-16T07:18:43.691Z,70.39
2017-04-16T07:19:43.673Z,70.3
2017-04-16T07:20:43.650Z,70.58
2017-04-16T07:21:43.633Z,70.36
2017-04-16T07:22:43.614Z,70.45
2017-04-16T07:23:43.600Z,70.45
2017-04-16T07:24:43.569Z,70.45
2017-04-16T07:25:43.549Z,70.36
2017-04-16T07:26:43.529Z,70.83
2017-04-16T07:27:43.511Z,70.26
2017-04-16T07:28:43.490Z,70.17
2017-04-16T07:29:43.468Z,70.45
2017-04-16T07:30:43.449Z,70.02
2017-04-16T07:31:43.428Z,69.83
2017-04-16T07:32:43.409Z,69.54
2017-04-16T07:33:43.389Z,69.64
2017-04-16T07:34:43.366Z,69.83
2017-04-16T07:35:43.345Z,69.83
2017-04-16T07:36:43.327Z,69.54
2017-04-16T07:37:43.304Z,69.54
2017-04-16T07:38:43.288Z,69.26
2017-04-16T07:39:43.471Z,69.35
2017-04-16T07:40:43.247Z,69.35
2017-04-16T07:41:43.229Z,68.41
2017-04-16T07:42:43.215Z,68.98
2017-04-16T07:43:43.192Z,68.7
2017-04-16T07:44:43.170Z,68.79
2017-04-16T07:45:43.153Z,68.88
2017-04-16T07:46:43.132Z,68.88
2017-04-16T07:47:43.111Z,68.7
2017-04-16T07:48:43.094Z,68.6
2017-04-16T07:49:43.075Z,69.07
2017-04-16T07:50:43.050Z,68.6
2017-04-16T07:51:43.032Z,68.6
2017-04-16T07:52:43.012Z,68.79
2017-04-16T07:53:42.995Z,68.98
2017-04-16T07:54:42.979Z,68.98
2017-04-16T07:55:43.018Z,68.6
2017-04-16T07:56:42.934Z,68.88
2017-04-16T07:57:42.917Z,68.79
2017-04-16T07:58:42.895Z,68.79
2017-04-16T07:59:42.876Z,68.7
2017-04-16T08:00:42.854Z,68.6
2017-04-16T08:01:42.842Z,68.6
2017-04-16T08:02:42.819Z,68.7
2017-04-16T08:03:42.798Z,68.6
2017-04-16T08:04:42.774Z,68.7
2017-04-16T08:05:42.757Z,68.85
2017-04-16T08:06:42.738Z,68.76
2017-04-16T08:07:42.717Z,68.66
2017-04-16T08:08:42.697Z,68.76
2017-04-16T08:09:42.675Z,68.66
2017-04-16T08:10:42.650Z,68.76
2017-04-16T08:11:42.634Z,68.95
2017-04-16T08:12:42.830Z,68.95
2017-04-16T08:13:42.594Z,68.95
2017-04-16T08:14:42.574Z,68.66
2017-04-16T08:15:42.550Z,68.19
2017-04-16T08:16:42.527Z,68.19
2017-04-16T08:17:42.512Z,68.47
2017-04-16T08:18:42.490Z,68.51
2017-04-16T08:19:42.466Z,68.6
2017-04-16T08:20:42.447Z,68.51
2017-04-16T08:21:42.427Z,68.32
2017-04-16T08:22:42.402Z,68.23
2017-04-16T08:23:42.383Z,68.47
2017-04-16T08:24:42.363Z,68.38
2017-04-16T08:25:42.372Z,68.38
2017-04-16T08:26:42.319Z,68.1
2017-04-16T08:27:42.302Z,68.29
2017-04-16T08:28:42.282Z,67.85
2017-04-16T08:29:42.258Z,67.94
2017-04-16T08:30:42.238Z,67.94
2017-04-16T08:31:42.217Z,67.75
2017-04-16T08:32:42.199Z,68.04
2017-04-16T08:33:42.175Z,67.57
2017-04-16T08:34:42.154Z,67.38
2017-04-16T08:35:42.135Z,67.75
2017-04-16T08:36:42.116Z,67.09
2017-04-16T08:37:42.101Z,67.28
2017-04-16T08:38:41.772Z,67.19
2017-04-16T08:39:42.055Z,67.19
2017-04-16T08:40:42.037Z,67.28
2017-04-16T08:41:42.015Z,67.28
2017-04-16T08:42:41.993Z,67
2017-04-16T08:43:41.976Z,67.38
2017-04-16T08:44:41.956Z,67.09
2017-04-16T08:45:41.939Z,67.09
2017-04-16T08:46:41.921Z,67.19
2017-04-16T08:47:41.901Z,67.75
2017-04-16T08:48:41.882Z,67.38
2017-04-16T08:49:41.861Z,67.38
2017-04-16T08:50:41.843Z,67.28
2017-04-16T08:51:41.825Z,67.19
2017-04-16T08:52:41.810Z,67.09
2017-04-16T08:53:41.788Z,67.09
2017-04-16T08:54:41.768Z,67.19
2017-04-16T08:55:41.750Z,67.66
2017-04-16T08:56:41.428Z,67.75
2017-04-16T08:57:41.713Z,67.19
2017-04-16T08:58:41.697Z,67.28
2017-04-16T08:59:41.676Z,67.09
2017-04-16T09:00:41.655Z,67.09
2017-04-16T09:01:41.634Z,67.38
2017-04-16T09:02:41.639Z,67
2017-04-16T09:03:41.596Z,67
2017-04-16T09:04:41.576Z,66.94
2017-04-16T09:05:41.561Z,66.65
2017-04-16T09:06:41.540Z,66.56
2017-04-16T09:07:41.521Z,66.75
2017-04-16T09:08:41.510Z,66.56
2017-04-16T09:09:41.482Z,66.94
2017-04-16T09:10:41.464Z,66.47
2017-04-16T09:11:41.443Z,66.47
2017-04-16T09:12:41.433Z,66.94
2017-04-16T09:13:41.411Z,66.75
2017-04-16T09:14:41.391Z,66.84
2017-04-16T09:15:41.376Z,66.75
2017-04-16T09:16:41.355Z,67.22
2017-04-16T09:17:41.340Z,67.41
2017-04-16T09:18:41.331Z,67.22
2017-04-16T09:19:41.302Z,67.13
2017-04-16T09:20:41.284Z,67.41
2017-04-16T09:21:41.266Z,67.13
2017-04-16T09:22:41.245Z,67.38
2017-04-16T09:23:41.231Z,67.09
2017-04-16T09:24:41.211Z,67
2017-04-16T09:25:41.197Z,67.19
2017-04-16T09:26:41.175Z,67
2017-04-16T09:27:41.160Z,67.19
2017-04-16T09:28:41.137Z,66.9
2017-04-16T09:29:41.118Z,67.38
2017-04-16T09:30:41.098Z,67.19
2017-04-16T09:31:41.079Z,67.28
2017-04-16T09:32:41.063Z,67.28
2017-04-16T09:33:41.046Z,67.09
2017-04-16T09:34:41.024Z,67.19
2017-04-16T09:35:41.003Z,67.19
2017-04-16T09:36:40.986Z,67.19
2017-04-16T09:37:40.970Z,67.38
2017-04-16T09:38:40.948Z,67.38
2017-04-16T09:39:40.932Z,67.38
2017-04-16T09:40:40.608Z,67.09
2017-04-16T09:41:40.892Z,67.28
2017-04-16T09:42:40.872Z,67.38
2017-04-16T09:43:40.556Z,67.47
2017-04-16T09:44:40.534Z,67.19
2017-04-16T09:45:40.511Z,67.38
2017-04-16T09:46:40.796Z,67.28
2017-04-16T09:47:40.475Z,67.09
2017-04-16T09:48:40.754Z,67.38
2017-04-16T09:49:40.440Z,67.38
2017-04-16T09:50:40.414Z,67.28
2017-04-16T09:51:40.400Z,67.38
2017-04-16T09:52:40.379Z,67.09
2017-04-16T09:53:40.361Z,67
2017-04-16T09:54:40.640Z,67.38
2017-04-16T09:55:40.624Z,67.19
2017-04-16T09:56:40.604Z,67.19
2017-04-16T09:57:40.582Z,66.71
2017-04-16T09:58:40.567Z,66.9
2017-04-16T09:59:40.545Z,67.38
2017-04-16T10:00:40.525Z,67.09
2017-04-16T10:01:40.502Z,67.28
2017-04-16T10:02:40.184Z,67.09
2017-04-16T10:03:40.468Z,66.9
2017-04-16T10:04:40.448Z,67
2017-04-16T10:05:40.428Z,66.81
2017-04-16T10:06:40.410Z,66.9
2017-04-16T10:07:40.390Z,66.62
2017-04-16T10:08:40.372Z,66.9
2017-04-16T10:09:40.352Z,66.37
2017-04-16T10:10:40.331Z,66.56
2017-04-16T10:11:40.317Z,66.56
2017-04-16T10:12:40.297Z,66.18
2017-04-16T10:13:40.279Z,66.18
2017-04-16T10:14:40.257Z,66.47
2017-04-16T10:15:40.240Z,66.47
2017-04-16T10:16:40.223Z,66.28
2017-04-16T10:17:40.205Z,66.09
2017-04-16T10:18:40.190Z,66.28
2017-04-16T10:19:40.168Z,67.03
2017-04-16T10:20:40.154Z,66.56
2017-04-16T10:21:40.135Z,66.56
2017-04-16T10:22:40.117Z,66.56
2017-04-16T10:23:40.103Z,67.03
2017-04-16T10:24:40.077Z,66.81
2017-04-16T10:25:40.062Z,67.09
2017-04-16T10:26:40.040Z,67.28
2017-04-16T10:27:40.024Z,67.09
2017-04-16T10:28:40.004Z,66.34
2017-04-16T10:29:39.988Z,66.9
2017-04-16T10:30:39.965Z,66.9
2017-04-16T10:31:39.944Z,67
2017-04-16T10:32:39.930Z,67.19
2017-04-16T10:33:39.910Z,66.34
2017-04-16T10:34:39.893Z,66.34
2017-04-16T10:35:39.872Z,66.34
2017-04-16T10:36:39.551Z,66.81
2017-04-16T10:37:39.833Z,66.81
2017-04-16T10:38:39.847Z,66.52
2017-04-16T10:39:39.794Z,66.9
2017-04-16T10:40:39.772Z,66.71
2017-04-16T10:41:39.759Z,66.62
2017-04-16T10:42:39.735Z,66.9
2017-04-16T10:43:39.718Z,66.71
2017-04-16T10:44:39.696Z,66.71
2017-04-16T10:45:39.689Z,66.9
2017-04-16T10:46:39.657Z,66.71
2017-04-16T10:47:39.638Z,67
2017-04-16T10:48:39.615Z,66.71
2017-04-16T10:49:39.602Z,66.81
2017-04-16T10:50:39.275Z,66.9
2017-04-16T10:51:39.560Z,66.9
2017-04-16T10:52:39.547Z,66.9
2017-04-16T10:53:39.526Z,66.9
2017-04-16T10:54:39.504Z,66.24
2017-04-16T10:55:39.480Z,66.24
2017-04-16T10:56:39.458Z,66.15
2017-04-16T10:57:39.446Z,66.71
2017-04-16T10:58:39.422Z,66.71
2017-04-16T10:59:39.401Z,66.9
2017-04-16T11:00:39.384Z,67
2017-04-16T11:01:39.365Z,66.43
2017-04-16T11:02:39.348Z,66.24
2017-04-16T11:03:39.388Z,66.24
2017-04-16T11:04:39.306Z,66.15
2017-04-16T11:05:39.298Z,66.34
2017-04-16T11:06:39.266Z,66.34
2017-04-16T11:07:39.252Z,66.24
2017-04-16T11:08:39.228Z,66.24
2017-04-16T11:09:39.212Z,66.24
2017-04-16T11:10:39.191Z,66.34
2017-04-16T11:11:39.185Z,66.9
2017-04-16T11:12:39.153Z,67
2017-04-16T11:13:39.132Z,66.68
2017-04-16T11:14:39.110Z,66.49
2017-04-16T11:15:39.092Z,66.3
2017-04-16T11:16:39.072Z,66.4
2017-04-16T11:17:39.048Z,66.49
2017-04-16T11:18:39.026Z,66.3
2017-04-16T11:19:39.009Z,66.68
2017-04-16T11:20:39.145Z,66.3
2017-04-16T11:21:38.964Z,66.4
2017-04-16T11:22:38.944Z,66.02
2017-04-16T11:23:38.927Z,66.02
2017-04-16T11:24:38.903Z,66.11
2017-04-16T11:25:38.881Z,65.92
2017-04-16T11:26:38.858Z,65.73
2017-04-16T11:27:38.839Z,66.21
2017-04-16T11:28:38.819Z,66.02
2017-04-16T11:29:38.802Z,65.92
2017-04-16T11:30:38.788Z,65.73
2017-04-16T11:31:38.758Z,65.73
2017-04-16T11:32:38.736Z,65.92
2017-04-16T11:33:38.718Z,65.83
2017-04-16T11:34:38.708Z,65.83
2017-04-16T11:35:38.673Z,65.83
2017-04-16T11:36:38.657Z,66.11
2017-04-16T11:37:38.642Z,66.21
2017-04-16T11:38:38.616Z,65.73
2017-04-16T11:39:38.605Z,66.11
2017-04-16T11:40:38.575Z,66.3
2017-04-16T11:41:38.557Z,65.83
2017-04-16T11:42:38.533Z,65.92
2017-04-16T11:43:38.512Z,66.11
2017-04-16T11:44:38.493Z,66.02
2017-04-16T11:45:38.171Z,66.02
2017-04-16T11:46:38.464Z,66.11
2017-04-16T11:47:38.440Z,66.21
2017-04-16T11:48:38.413Z,66.02
2017-04-16T11:49:38.387Z,65.83
2017-04-16T11:50:38.368Z,66.02
2017-04-16T11:51:38.347Z,66.02
2017-04-16T11:52:38.326Z,65.55
2017-04-16T11:53:38.325Z,65.55
2017-04-16T11:54:38.284Z,65.36
2017-04-16T11:55:38.261Z,65.55
2017-04-16T11:56:38.243Z,65.48
2017-04-16T11:57:38.223Z,65.58
2017-04-16T11:58:38.202Z,65.67
2017-04-16T11:59:38.181Z,65.3
2017-04-16T12:00:38.164Z,65.58
2017-04-16T12:01:38.142Z,65.58
2017-04-16T12:02:38.128Z,65.67
2017-04-16T12:03:38.105Z,65.67
2017-04-16T12:04:38.085Z,65.3
2017-04-16T12:05:38.063Z,65.58
2017-04-16T12:06:38.048Z,65.39
2017-04-16T12:07:38.027Z,65.11
2017-04-16T12:08:38.011Z,65.48
2017-04-16T12:09:37.987Z,65.48
2017-04-16T12:10:37.970Z,65.58
2017-04-16T12:11:37.951Z,65.48
2017-04-16T12:12:37.931Z,65.58
2017-04-16T12:13:37.911Z,65.45
2017-04-16T12:14:37.892Z,65.36
2017-04-16T12:15:37.873Z,65.11
2017-04-16T12:16:37.851Z,65.58
2017-04-16T12:17:37.840Z,65.48
2017-04-16T12:18:37.851Z,65.3
2017-04-16T12:19:37.791Z,65.58
2017-04-16T12:20:37.775Z,65.45
2017-04-16T12:21:37.753Z,65.92
2017-04-16T12:22:37.731Z,66.11
2017-04-16T12:23:37.715Z,66.02
2017-04-16T12:24:37.693Z,65.45
2017-04-16T12:25:37.668Z,65.08
2017-04-16T12:26:37.652Z,65.45
2017-04-16T12:27:37.630Z,65.55
2017-04-16T12:28:37.611Z,65.36
2017-04-16T12:29:37.589Z,65.55
2017-04-16T12:30:37.569Z,65.58
2017-04-16T12:31:37.548Z,65.3
2017-04-16T12:32:37.530Z,65.48
2017-04-16T12:33:37.513Z,65.58
2017-04-16T12:34:37.491Z,65.58
2017-04-16T12:35:37.484Z,65.48
2017-04-16T12:36:37.450Z,65.11
2017-04-16T12:37:37.434Z,65.08
2017-04-16T12:38:37.412Z,65.45
2017-04-16T12:39:37.393Z,65.45
2017-04-16T12:40:37.370Z,65.45
2017-04-16T12:41:37.356Z,65.83
2017-04-16T12:42:37.357Z,65.92
2017-04-16T12:43:37.316Z,65.83
2017-04-16T12:44:37.288Z,65.36
2017-04-16T12:45:37.270Z,65.36
2017-04-16T12:46:37.248Z,65.17
2017-04-16T12:47:37.224Z,65.36
2017-04-16T12:48:37.207Z,65.45
2017-04-16T12:49:37.190Z,65.08
2017-04-16T12:50:37.163Z,65.17
2017-04-16T12:51:37.143Z,65.08
2017-04-16T12:52:37.122Z,65.45
2017-04-16T12:53:37.097Z,65.36
2017-04-16T12:54:37.076Z,65.17
2017-04-16T12:55:37.058Z,65.45
2017-04-16T12:56:37.037Z,65.26
2017-04-16T12:57:37.013Z,65.36
2017-04-16T12:58:36.993Z,65.08
2017-04-16T12:59:36.975Z,65.08